This is the latest recevied weather packets stored in our database for station/object EC1DIR-13. If no packets are shown the sender has not sent any weather packets the latest 10 day(s).
| Time | Temp. | Humidity | Pressure | Rain* | Wind** | Luminosity | Snow |
|---|---|---|---|---|---|---|---|
| 1777451422 | 13.89° C | 61% | 1009.2 hPa | 2.03 mm | - | 19 W/m² | - |
| 1777448716 | 14.44° C | 57% | 1008.8 hPa | 0 mm | - | 30 W/m² | - |
| 1777443311 | 13.33° C | 60% | 1008.2 hPa | 0 mm | - | 47 W/m² | - |
| 1777442408 | 12.78° C | 62% | 1008.3 hPa | 0 mm | - | 21 W/m² | - |
| 1777441506 | 12.78° C | 61% | 1008.3 hPa | 0 mm | - | 7 W/m² | - |
| 1777434358 | 12.78° C | 59% | 1008.1 hPa | 0 mm | - | 0 W/m² | - |
| 1777429847 | 13.89° C | 61% | 1008 hPa | 0 mm | - | 0 W/m² | - |
| 1777417222 | 15.56° C | 49% | 1009.2 hPa | 0 mm | - | 0 W/m² | - |
| 1777413613 | 17.22° C | 38% | 1009 hPa | 0 mm | - | 0 W/m² | - |
| 1777411812 | 16.67° C | 38% | 1008.9 hPa | 0 mm | - | 0 W/m² | - |
| 1777407310 | 17.22° C | 37% | 1008.9 hPa | 0 mm | - | 0 W/m² | - |
| 1777406410 | 17.22° C | 36% | 1008.6 hPa | 0 mm | - | 0 W/m² | - |
| 1777400104 | 21.67° C | 11% | 1007.3 hPa | 0 mm | - | 35 W/m² | - |
| 1777396571 | 22.78° C | 8% | 1007.7 hPa | 0 mm | - | 225 W/m² | - |
| 1777395660 | 22.78° C | 9% | 1007.7 hPa | 0 mm | - | 183 W/m² | - |
| 1777392967 | 22.78° C | 9% | 1007.8 hPa | 0 mm | - | 88 W/m² | - |
| 1777392058 | 23.33° C | 8% | 1007.7 hPa | 0 mm | - | 84 W/m² | - |
| 1777389354 | 22.78° C | 10% | 1008 hPa | 0 mm | - | 708 W/m² | - |
| 1777388464 | 23.33° C | 9% | 1008.2 hPa | 0 mm | - | 130 W/m² | - |
| 1777386647 | 22.78° C | 9% | 1008.8 hPa | 0 mm | - | 160 W/m² | - |
| 1777383043 | 23.89° C | 7% | 1009.4 hPa | 0 mm | - | 911 W/m² | - |
| 1777372212 | 21.67° C | 12% | 1012 hPa | 0 mm | - | 817 W/m² | - |
| 1777368657 | 20.56° C | 10% | 1012.3 hPa | 0 mm | - | 700 W/m² | - |
| 1777366855 | 20.56° C | 12% | 1012.5 hPa | 0 mm | - | 626 W/m² | - |
| 1777356002 | 11.67° C | 39% | 1012.5 hPa | 0 mm | - | 33 W/m² | - |
* Rain latest hour (hover to see other rain measurements)
** Current wind speed in m/s (hover to see current wind gust speed)